Terminal Aerodrome Forecast
Issued by NWS

Home | Current Version | Previous Version | Text Only | Print | Product List | Glossary Off
Versions: 1 2 3 4 5 6 7 8 9 10 11 12 13 14 15 16 17 18

285
FTUS43 KFGF 181120
TAFBJI
TAF
KBJI 181120Z 1812/1912 15007KT P6SM BKN090
     FM181700 16010KT P6SM SCT090
     FM182000 16012KT P6SM BKN050
     FM190300 15008KT P6SM BKN035
     FM191000 14008KT P6SM BKN015=

USA.gov is the U.S. government's official web portal to all federal, state and local government web resources and services.